Hatfield, Indiana
Current Conditions -  °F | °C
As of 1:56 PM on Friday 28 Nov 2014 (Local Time) from KOWB Reporting Station
Clear Clear  
Wind Chill: 34°   Ceiling: Unl
Heat Index: 42°   Visibility: 10mi
Dew Point: 27°   Wind: 17mph
Humidity: 56%   Direction: 160°SSE
Pressure: 30.2"   Gusts: NA
Location:  37.9°N, 87.22°W
Report Text: KOWB 281956Z 16015KT 10SM CLR 06/M03 A3020 RMK AO2 T00551027 SLP230
Loading
Personal Weather Stations






























Interactive Weather Map New forecast layout! Learn more

10-Day Weather Forecast

Advertisements
Track Severe Weather on mobile